Airfield :
LOGIN :

Register | Disclaimer

   EN    FR    IT 

 










Legend :    VFR   Marginal VFR   IFR   Intensive IFR   Very Intensive IFR
Visi :
Ceiling :
>= 8 km
>= 3000ft
5 to 8 km
1000 to 3000 ft
1500m to 5 km
500 to 1000 ft
800 to 1500m
200 to 500 ft
< 800m
< 200 ft
Symbols :   Thunderstorms  Fog  Heavy snow  Heavy precipitations  Wind > 20 kt
SIGMETs :     Misc.  Thunderstorms  Icing  Turbulence  Mountain Waves  Volcanic Ashes






- Airport Elevation : 1036 ft
- IATA code : CLJ


LRCL - Cluj-Napoca International

CURRENT METAR :
  • 021300Z 10003KT 9999 FEW017 06/03 Q1022

EXPIRED METARs :
  • 021230Z 08003KT 9999 FEW016 06/03 Q1022
  • 021200Z 09004KT 060V170 9999 SCT015 06/03 Q1022
  • 021130Z 10004KT 060V140 9999 BKN014 06/03 Q1022
  • 021100Z 09004KT 050V120 9999 SCT016 SCT033 06/03 Q1022
  • 021030Z 06003KT 9999 SCT014 BKN028 05/03 Q1022

TAF TAF LRCL
Valid from the 02 at 12:00 until the 02 at 21:00 UTC


021100Z 0212/0221 VRB04KT 9999 SCT015 OVC025
BECMG 0214/0216 3000 BR BKN010
TEMPO 0218/0221 1500 BR BKN005



MET'MAP, your aeronautical weather chart ! - Copyright ORBIFLY December 2007 - Disclaimer

ORBIFLY MET'MAP TEAM :

Programming & Development : Alexandra Zaïnal
Original concept : Baudouin d'Aumeries
Technical & hardware support : Manuel Goepfert
Assistance : Marc-Olivier Méhu




SOURCES & CREDITS :

   NOAA